Logo AVAMET
Benvolgut visitant, si us plau, ingressa Recuperar contrasenya

Nàquera Germanells

Dades diàries. Acumulats / Últims 30 dies disponibles

Data Temperatura (°C) Humitat rel. (%) Pressió rel. (hPa) Vent (km/h) Precipitació
Mínima Mitjana Màxima Amplitud
tèrmica
Mínima Mitjana Màxima Mínima Mitjana Màxima Predom. Mitjana Ràfega
màxima
Total
(mm)
Índex-n
Mínima Mitjana Màxima Mínima Mitjana Màxima n
0 a 1
P0 max
mm 5'
Dades mensuals acumulades fins l'últim dia disponible
12/2019 5,8 10,1 14,1 12,8 9,4 15,8 20,6 14,8 1 72 95 0 1.010 1.020   15,2 75,6 50,2
Dades anuals acumulades fins l'últim dia disponible
2019 0,4 12,9 25,7 17,5 9,4 22,4 41,3 40,9 1 66 97 0 1.012 1.031   7,8 77,2 214,4
Últims 30 dies disponibles
15-12-2019 9,8     13,0     19,6 9,8 42 61 74 1.008 1.009 1.012 SSO 9,2 27,4 0,0
14-12-2019 12,0     15,7     18,8 6,8 47 57 65 1.009 1.010 1.012 OSO 20,9 59,5 0,0
13-12-2019 14,1     17,9     20,6 6,5 48 58 70 1.001 1.004 1.009 OSO 27,2 67,6 0,0
12-12-2019 7,3     11,5     14,6 7,3 50 60 67 1.004 1.012 1.018 OSO 22,4 51,5 0,0
11-12-2019 5,8     13,4     19,3 13,5 1 50 76 0 999 1.018 ONO 14,2 57,9 0,0
07-12-2019 7,1     8,2     9,4 2,3 92 93 95 1.018 1.019 1.020 O 5,1 16,1 0,2
06-12-2019 9,8     12,0     14,8 5,0 82 91 95 1.017 1.019 1.020 S 3,5 17,7 0,2
05-12-2019 11,2     11,8     13,2 2,0 87 91 93 1.005 1.012 1.018 ESE 13,2 45,1 11,8 0,23 1,00
04-12-2019 10,4     11,9     14,8 4,4 67 84 93 1.000 1.002 1.006 S 21,9 75,6 25,0 0,71 1,90
03-12-2019 9,3     10,7     12,8 3,5 66 79 91 1.006 1.011 1.014 SE 13,6 56,3 8,2 0,36 0,80
02-12-2019 11,5     12,7     13,6 2,1 59 74 86 1.008 1.010 1.014 ESE 19,7 48,3 4,8 0,16 0,60
01-12-2019 12,4     14,7     18,1 5,7 42 69 87 1.005 1.007 1.009 S 11,2 46,7 0,0
30-11-2019 10,1     16,5     22,6 12,5 48 67 88 1.009 1.013 1.016 S 10,3 38,6 0,0
29-11-2019 13,7     17,5     22,6 8,9 49 64 79 1.010 1.013 1.016 OSO 11,1 38,6 0,0
28-11-2019 10,1     15,3     19,2 9,1 51 62 80 1.008 1.010 1.012 SO 15,7 45,1 0,0
27-11-2019 14,3     17,6     21,0 6,7 42 57 73 1.003 1.005 1.008 SO 18,8 57,9 0,0
26-11-2019 11,3     17,6     22,7 11,4 46 61 77 1.004 1.006 1.010 OSO 15,7 48,3 0,0
25-11-2019 12,1     16,5     22,4 10,3 42 58 74 1.006 1.008 1.010 OSO 15,6 43,5 0,0
24-11-2019 8,3     13,5     18,9 10,6 35 51 67 1.003 1.006 1.009 OSO 10,5 35,4 0,0
23-11-2019 11,3     13,7     17,8 6,5 36 58 91 987 993 1.002 OSO 17,5 54,7 0,2
22-11-2019 8,5     12,2     15,3 6,8 69 83 93 989 997 1.004 SSO 5,2 22,5 1,0
21-11-2019 6,8     11,6     16,4 9,6 57 74 87 1.003 1.004 1.006 SO 7,5 29,0 0,0
20-11-2019 5,9     10,7     16,0 10,1 42 68 84 1.004 1.007 1.010 SO 6,4 20,9 0,0
19-11-2019 3,6     9,9     16,7 13,1 33 58 74 1.009 1.011 1.013 SSO 7,6 22,5 0,0
18-11-2019 8,7     11,9     16,0 7,3 39 57 76 1.002 1.006 1.012 OSO 7,5 24,1 0,0
17-11-2019 4,2     11,0     15,9 11,7 42 57 71 1.004 1.007 1.010 OSO 17,8 54,7 0,0
16-11-2019 4,8     10,2     15,8 11,0 37 57 75 1.002 1.006 1.010 SO 7,3 22,5 0,0
15-11-2019 6,2     10,7     15,7 9,5 39 57 80 995 998 1.002 O 12,6 38,6 0,0
14-11-2019 7,9     12,4     16,3 8,4 47 65 88 995 997 1.004 OSO 16,5 51,5 0,2
13-11-2019 11,2     14,7     19,3 8,1 37 68 86 1.000 1.003 1.006 SSO 8,6 33,8 0,2
Últims 13 mesos disponibles
11/2019 3,6 10,5 19,4 14,8 15,3 19,5 28,6 25,0 43 57 83 993 1.006 1.013 OSO 13,5 69,2 1,8
10/2019 9,1 14,8 19,9 19,2 16,4 24,3 30,6 21,5 48 72 87 1.003 1.012 1.017 S 5,9 53,1 17,0
09/2019 14,9 19,0 22,1 23,0 21,0 27,0 34,6 19,7 49 74 86 1.001 1.012 1.020 S 7,5 75,6 86,0
08/2019 17,0 21,1 25,7 25,6 24,9 30,0 41,3 24,3 40 72 82 1.006 1.011 1.015 SSE 5,5 67,6 13,6
07/2019 19,3 21,2 23,4 25,9 27,7 30,4 35,2 15,9 51 66 79 1.000 1.009 1.016 SSE 5,5 61,2 4,4
06/2019 11,1 15,5 19,1 20,5 21,3 25,0 29,7 18,6 44 62 74 1.003 1.010 1.017 SSE 7,7 70,8 0,0
05/2019 8,4 13,4 19,6 17,9 18,2 22,2 32,0 23,6 46 68 87 1.000 1.010 1.019 SSE 6,9 62,8 27,8
04/2019 7,0 10,2 14,3 14,7 14,9 19,7 29,1 22,1 39 67 97 995 1.009 1.020 SSO 9,9 64,4 5,6
03/2019 4,3 8,2 14,8 13,7 12,3 19,3 28,9 24,6 43 60 85 1.005 1.018 1.025 SSE 6,7 62,8 6,8
02/2019 2,2 6,2 10,1 11,4 12,4 17,4 25,0 22,8 35 66 83 989 1.020 1.029 SO 6,5 75,6 0,8
01/2019 0,4 5,2 11,6 10,4 11,6 16,3 20,3 19,9 41 61 86 996 1.014 1.026 OSO 7,4 77,2 0,4
12/2018 3,9 7,8 12,8 12,3 14,1 18,1 23,5 19,6 52 73 89 1.003 1.020 1.026 OSO 5,9 77,2 8,6
11/2018 5,4 10,6 16,0 14,0 14,3 17,8 21,4 16,0 55 77 92 997 1.011 1.019 OSO 8,8 74,0 100,6
Tots els anys disponibles
Temperatura (°C)
Humitat relativa (%)
Velocitat del vent i ràfega màxima (km/h)
Direcció del vent (°)
Pressió (hPa)
Precipitació (mm)
Nota sobre les dades: s'avisa a l'usuari de la provisionalitat i no oficialitat d'aquestes dades
Logo AVAMET blanc
Web allotjada a Sollutia
Llicència de Creative CommonsLa web d'AVAMET i els seus continguts estan subjectes a una llicència de
Reconeixement - No Comercial - Compartir igual
Últimes estacions: Chella - El Rincón (Soci), Aielo de Malferit - Centre (Soci), Faura (Inforatge), Benifairó de les Valls (Inforatge), Xàbia - Les Valls (Soci) - - -